createdAt,value
2017-03-16T00:00:20.333Z,10.09
2017-03-16T00:00:42.114Z,10.04
2017-03-16T00:01:03.878Z,9.98
2017-03-16T00:01:25.619Z,10.04
2017-03-16T00:01:47.517Z,10.08
2017-03-16T00:02:09.273Z,10.16
2017-03-16T00:02:31.095Z,10.17
2017-03-16T00:02:52.985Z,10.15
2017-03-16T00:03:14.882Z,10.11
2017-03-16T00:03:36.763Z,10.09
2017-03-16T00:03:58.690Z,10.09
2017-03-16T00:04:20.510Z,10.09
2017-03-16T00:04:42.328Z,10.19
2017-03-16T00:05:08.995Z,10.25
2017-03-16T00:05:30.803Z,10.31
2017-03-16T00:05:53.247Z,10.25
2017-03-16T00:06:15.057Z,10.11
2017-03-16T00:06:36.930Z,10.12
2017-03-16T00:06:58.752Z,10.06
2017-03-16T00:07:20.511Z,10.01
2017-03-16T00:07:42.303Z,10.03
2017-03-16T00:08:04.146Z,10.04
2017-03-16T00:08:25.918Z,10.04
2017-03-16T00:08:47.657Z,9.99
2017-03-16T00:09:09.430Z,10.00
2017-03-16T00:09:31.260Z,9.91
2017-03-16T00:09:52.984Z,9.94
2017-03-16T00:10:14.703Z,9.82
2017-03-16T00:10:36.540Z,9.85
2017-03-16T00:10:58.457Z,9.85
2017-03-16T00:11:20.217Z,9.96
2017-03-16T00:11:42.041Z,10.01
2017-03-16T00:12:06.629Z,10.04
2017-03-16T00:12:28.531Z,10.10
2017-03-16T00:12:50.290Z,10.08
2017-03-16T00:13:12.063Z,10.17
2017-03-16T00:13:33.840Z,10.25
2017-03-16T00:13:55.804Z,10.26
2017-03-16T00:14:17.548Z,10.13
2017-03-16T00:14:39.302Z,10.04
2017-03-16T00:15:01.199Z,9.94
2017-03-16T00:15:25.703Z,9.80
2017-03-16T00:15:47.639Z,9.79
2017-03-16T00:16:09.450Z,9.73
2017-03-16T00:16:31.247Z,9.80
2017-03-16T00:16:53.163Z,9.84
2017-03-16T00:17:19.759Z,9.85
2017-03-16T00:17:41.507Z,9.84
2017-03-16T00:18:03.407Z,9.79
2017-03-16T00:18:25.190Z,9.79
2017-03-16T00:18:47.058Z,9.90
2017-03-16T00:19:08.930Z,9.99
2017-03-16T00:19:30.842Z,10.09
2017-03-16T00:19:52.623Z,10.06
2017-03-16T00:20:19.282Z,9.96
2017-03-16T00:20:46.831Z,9.90
2017-03-16T00:21:08.666Z,9.84
2017-03-16T00:21:35.384Z,9.91
2017-03-16T00:21:59.519Z,9.85
2017-03-16T00:22:21.457Z,9.74
2017-03-16T00:22:43.235Z,9.76
2017-03-16T00:23:05.045Z,9.85
2017-03-16T00:23:26.831Z,9.93
2017-03-16T00:23:48.744Z,9.99
2017-03-16T00:24:10.576Z,9.92
2017-03-16T00:24:32.305Z,9.99
2017-03-16T00:24:54.040Z,10.02
2017-03-16T00:25:18.719Z,9.99
2017-03-16T00:25:40.529Z,9.92
2017-03-16T00:26:02.307Z,9.96
2017-03-16T00:26:24.151Z,10.01
2017-03-16T00:26:45.906Z,9.93
2017-03-16T00:27:07.681Z,9.92
2017-03-16T00:27:29.480Z,9.92
2017-03-16T00:27:51.209Z,9.97
2017-03-16T00:28:16.087Z,9.94
2017-03-16T00:28:37.861Z,9.97
2017-03-16T00:28:59.673Z,9.92
2017-03-16T00:29:21.426Z,9.86
2017-03-16T00:29:43.180Z,9.81
2017-03-16T00:30:05.028Z,9.79
2017-03-16T00:30:26.777Z,9.80
2017-03-16T00:30:48.618Z,9.91
2017-03-16T00:31:13.315Z,9.97
2017-03-16T00:31:35.126Z,9.99
2017-03-16T00:31:56.924Z,9.83
2017-03-16T00:32:21.500Z,9.82
2017-03-16T00:32:43.332Z,9.91
2017-03-16T00:33:05.221Z,9.89
2017-03-16T00:33:26.969Z,9.78
2017-03-16T00:33:48.823Z,9.76
2017-03-16T00:34:25.156Z,9.81
2017-03-16T00:35:28.377Z,9.88
2017-03-16T00:35:50.233Z,9.87
2017-03-16T00:36:11.993Z,9.79
2017-03-16T00:36:33.766Z,9.73
2017-03-16T00:36:55.691Z,9.80
2017-03-16T00:37:17.547Z,9.83
2017-03-16T00:37:39.449Z,9.87
2017-03-16T00:38:01.184Z,9.85
2017-03-16T00:38:22.910Z,9.85
2017-03-16T00:38:44.720Z,9.82
2017-03-16T00:39:06.463Z,9.75
2017-03-16T00:39:28.246Z,9.65
2017-03-16T00:39:50.284Z,9.62
2017-03-16T00:40:12.143Z,9.70
2017-03-16T00:40:34.191Z,9.90
2017-03-16T00:40:55.964Z,9.96
2017-03-16T00:41:17.781Z,9.99
2017-03-16T00:41:39.536Z,9.92
2017-03-16T00:42:01.812Z,9.83
2017-03-16T00:42:23.716Z,9.83
2017-03-16T00:42:48.668Z,9.82
2017-03-16T00:43:10.566Z,9.94
2017-03-16T00:43:32.995Z,9.80
2017-03-16T00:44:00.674Z,9.70
2017-03-16T00:44:22.442Z,9.74
2017-03-16T00:44:44.310Z,9.71
2017-03-16T00:45:06.047Z,9.78
2017-03-16T00:45:27.836Z,9.80
2017-03-16T00:45:49.596Z,9.84
2017-03-16T00:46:11.350Z,9.79
2017-03-16T00:46:33.312Z,9.88
2017-03-16T00:46:55.014Z,9.95
2017-03-16T00:47:16.782Z,9.95
2017-03-16T00:47:38.542Z,9.92
2017-03-16T00:48:00.727Z,9.93
2017-03-16T00:48:22.606Z,9.79
2017-03-16T00:48:44.588Z,9.78
2017-03-16T00:49:06.322Z,9.63
2017-03-16T00:49:28.246Z,9.59
2017-03-16T00:49:50.072Z,9.63
2017-03-16T00:50:11.822Z,9.71
2017-03-16T00:50:34.447Z,9.75
2017-03-16T00:50:56.362Z,9.83
2017-03-16T00:52:07.532Z,9.82
2017-03-16T00:52:29.398Z,9.70
2017-03-16T00:52:51.374Z,9.70
2017-03-16T00:53:13.234Z,9.66
2017-03-16T00:53:35.026Z,9.55
2017-03-16T00:53:56.793Z,9.62
2017-03-16T00:54:19.609Z,9.68
2017-03-16T00:54:41.708Z,9.71
2017-03-16T00:55:03.523Z,9.71
2017-03-16T00:55:25.430Z,9.68
2017-03-16T00:55:47.366Z,9.72
2017-03-16T00:56:09.099Z,9.76
2017-03-16T00:56:30.973Z,9.85
2017-03-16T00:56:52.966Z,9.91
2017-03-16T00:57:14.767Z,10.02
2017-03-16T00:57:36.510Z,10.04
2017-03-16T00:57:58.227Z,9.98
2017-03-16T00:58:20.143Z,9.93
2017-03-16T00:58:42.144Z,9.88
2017-03-16T00:59:03.942Z,9.86
2017-03-16T00:59:25.666Z,9.83
2017-03-16T00:59:47.417Z,9.80
2017-03-16T01:00:09.191Z,9.79
2017-03-16T01:00:31.488Z,9.88
2017-03-16T01:00:53.247Z,9.97
2017-03-16T01:01:15.334Z,10.02
2017-03-16T01:01:37.459Z,10.01
2017-03-16T01:01:59.441Z,9.98
2017-03-16T01:02:21.218Z,10.08
2017-03-16T01:02:42.950Z,10.18
2017-03-16T01:03:04.853Z,10.13
2017-03-16T01:03:26.738Z,10.10
2017-03-16T01:03:48.625Z,10.13
2017-03-16T01:04:10.485Z,10.18
2017-03-16T01:04:46.530Z,10.10
2017-03-16T01:05:08.928Z,10.11
2017-03-16T01:05:30.742Z,10.06
2017-03-16T01:05:52.925Z,10.00
2017-03-16T01:06:14.709Z,9.95
2017-03-16T01:07:17.245Z,9.87
2017-03-16T01:07:39.060Z,9.97
2017-03-16T01:08:49.065Z,10.01
2017-03-16T01:09:11.223Z,10.08
2017-03-16T01:09:34.212Z,10.14
2017-03-16T01:09:56.249Z,10.17
2017-03-16T01:10:18.137Z,10.18
2017-03-16T01:10:40.171Z,10.12
2017-03-16T01:11:02.291Z,10.09
2017-03-16T01:11:24.139Z,10.04
2017-03-16T01:11:45.917Z,10.11
2017-03-16T01:12:13.368Z,10.03
2017-03-16T01:12:35.220Z,9.94
2017-03-16T01:12:56.993Z,9.97
2017-03-16T01:13:18.720Z,10.02
2017-03-16T01:13:40.577Z,10.08
2017-03-16T01:14:02.404Z,10.16
2017-03-16T01:14:24.290Z,10.19
2017-03-16T01:14:46.044Z,10.12
2017-03-16T01:15:08.797Z,10.09
2017-03-16T01:15:30.812Z,10.03
2017-03-16T01:15:52.953Z,10.05
2017-03-16T01:24:24.517Z,10.24
2017-03-16T01:25:27.024Z,10.38
2017-03-16T01:25:48.870Z,10.31
2017-03-16T01:26:10.795Z,10.28
2017-03-16T01:26:32.846Z,10.35
2017-03-16T01:26:54.558Z,10.34
2017-03-16T01:28:01.390Z,10.48
2017-03-16T01:28:23.457Z,10.46
2017-03-16T01:28:45.704Z,10.43
2017-03-16T01:29:07.407Z,10.49
2017-03-16T01:29:29.447Z,10.40
2017-03-16T01:29:51.290Z,10.32
2017-03-16T01:30:13.084Z,10.37
2017-03-16T01:30:35.003Z,10.33
2017-03-16T01:30:56.941Z,10.30
2017-03-16T01:31:19.196Z,10.32
2017-03-16T01:31:41.139Z,10.35
2017-03-16T01:32:03.004Z,10.27
2017-03-16T01:32:24.746Z,10.05
2017-03-16T01:32:46.495Z,9.96
2017-03-16T01:33:11.339Z,9.95
2017-03-16T01:33:33.069Z,9.92
2017-03-16T01:33:55.609Z,10.01
2017-03-16T01:34:17.495Z,9.98
2017-03-16T01:34:39.725Z,10.09
2017-03-16T01:35:01.534Z,10.17
2017-03-16T01:35:23.581Z,10.28
2017-03-16T01:35:45.395Z,10.31
2017-03-16T01:36:10.754Z,10.38
2017-03-16T01:36:32.757Z,10.41
2017-03-16T01:37:02.074Z,10.39
2017-03-16T01:37:26.307Z,10.37
2017-03-16T01:37:48.336Z,10.38
2017-03-16T01:44:50.923Z,10.06
2017-03-16T01:45:12.685Z,10.19
2017-03-16T01:45:34.377Z,10.29
2017-03-16T01:45:56.264Z,10.30
2017-03-16T01:46:18.380Z,10.25
2017-03-16T01:46:40.080Z,10.24
2017-03-16T01:47:01.897Z,10.19
2017-03-16T01:47:23.676Z,10.23
2017-03-16T01:47:45.616Z,10.16
2017-03-16T01:48:07.365Z,10.06
2017-03-16T01:48:29.077Z,10.12
2017-03-16T01:49:31.590Z,10.18
2017-03-16T01:49:53.347Z,10.26
2017-03-16T01:50:15.060Z,10.34
2017-03-16T01:50:36.868Z,10.32
2017-03-16T01:50:58.609Z,10.38
2017-03-16T01:51:20.331Z,10.45
2017-03-16T01:51:42.075Z,10.51
2017-03-16T01:52:03.910Z,10.55
2017-03-16T01:52:25.621Z,10.59
2017-03-16T01:52:47.360Z,10.55
2017-03-16T01:53:10.080Z,10.50
2017-03-16T01:53:31.857Z,10.42
2017-03-16T01:54:07.888Z,10.52
2017-03-16T01:54:34.915Z,10.57
2017-03-16T01:54:56.731Z,10.63
2017-03-16T01:55:32.765Z,10.42
2017-03-16T01:55:59.824Z,10.35
2017-03-16T01:56:21.644Z,10.30
2017-03-16T01:56:52.895Z,10.24
2017-03-16T01:57:14.641Z,10.37
2017-03-16T01:58:21.936Z,10.43
2017-03-16T01:58:43.642Z,10.40
2017-03-16T01:59:05.370Z,10.46
2017-03-16T01:59:31.895Z,10.56
2017-03-16T01:59:53.647Z,10.58
2017-03-16T02:00:29.694Z,10.56
2017-03-16T02:00:56.805Z,10.56
2017-03-16T02:01:18.501Z,10.49
2017-03-16T02:01:45.010Z,10.48
2017-03-16T02:02:06.742Z,10.55
2017-03-16T02:02:33.304Z,10.58
2017-03-16T02:02:55.021Z,10.63
2017-03-16T02:03:21.502Z,10.64
2017-03-16T02:03:43.246Z,10.66
2017-03-16T02:04:09.795Z,10.69
2017-03-16T02:04:31.540Z,10.71
2017-03-16T02:04:58.043Z,10.67
2017-03-16T02:06:00.571Z,10.74
2017-03-16T02:06:27.093Z,10.69
2017-03-16T02:06:48.817Z,10.65
2017-03-16T02:08:00.897Z,10.66
2017-03-16T02:08:22.626Z,10.70
2017-03-16T02:08:44.437Z,10.57
2017-03-16T02:09:10.921Z,10.58
2017-03-16T02:09:32.612Z,10.57
2017-03-16T02:09:54.353Z,10.57
2017-03-16T02:10:16.193Z,10.57
2017-03-16T02:10:37.883Z,10.57
2017-03-16T02:11:04.376Z,10.61
2017-03-16T02:11:26.149Z,10.57
2017-03-16T02:11:47.863Z,10.51
2017-03-16T02:12:09.563Z,10.58
2017-03-16T02:12:31.313Z,10.62
2017-03-16T02:13:38.591Z,10.58
2017-03-16T02:14:00.410Z,10.57
2017-03-16T02:14:31.876Z,10.62
2017-03-16T02:14:53.665Z,10.65
2017-03-16T02:15:20.211Z,10.70
2017-03-16T02:15:41.928Z,10.71
2017-03-16T02:16:03.633Z,10.66
2017-03-16T02:16:30.131Z,10.71
2017-03-16T02:16:51.913Z,10.72
2017-03-16T02:17:27.972Z,10.62
2017-03-16T02:17:55.056Z,10.49
2017-03-16T02:18:16.851Z,10.50
2017-03-16T02:18:38.604Z,10.57
2017-03-16T02:19:05.090Z,10.59
2017-03-16T02:19:26.795Z,10.56
2017-03-16T02:20:02.960Z,10.58
2017-03-16T02:20:30.102Z,10.61
2017-03-16T02:20:51.827Z,10.60
2017-03-16T02:21:23.130Z,10.52
2017-03-16T02:21:44.870Z,10.52
2017-03-16T02:22:16.126Z,10.53
2017-03-16T02:22:37.916Z,10.50
2017-03-16T02:23:09.159Z,10.45
2017-03-16T02:23:30.903Z,10.42
2017-03-16T02:23:57.454Z,10.46
2017-03-16T02:24:19.170Z,10.45
2017-03-16T02:24:40.882Z,10.41
2017-03-16T02:25:12.221Z,10.56
2017-03-16T02:25:33.957Z,10.62
2017-03-16T02:25:55.709Z,10.60
2017-03-16T02:26:17.421Z,10.51
2017-03-16T02:26:39.239Z,10.36
2017-03-16T02:27:05.721Z,10.28
2017-03-16T02:27:27.426Z,10.25
2017-03-16T02:27:53.962Z,10.25
2017-03-16T02:28:15.670Z,10.28
2017-03-16T02:28:42.168Z,10.28
2017-03-16T02:29:03.861Z,10.32
2017-03-16T02:29:30.510Z,10.29
2017-03-16T02:29:52.234Z,10.29
2017-03-16T02:30:13.947Z,10.23
2017-03-16T02:30:45.278Z,10.13
2017-03-16T02:31:07.031Z,10.14
2017-03-16T02:31:38.275Z,10.12
2017-03-16T02:32:00.070Z,10.10
2017-03-16T02:32:31.342Z,10.26
2017-03-16T02:32:53.073Z,10.32
2017-03-16T02:33:14.871Z,10.32
2017-03-16T02:33:41.355Z,10.42
2017-03-16T02:34:03.077Z,10.49
2017-03-16T02:34:24.906Z,10.55
2017-03-16T02:34:51.404Z,10.38
2017-03-16T02:35:13.137Z,10.27
2017-03-16T02:36:20.437Z,10.31
2017-03-16T02:36:42.161Z,10.34
2017-03-16T02:37:08.716Z,10.42
2017-03-16T02:37:30.481Z,10.49
2017-03-16T02:37:56.963Z,10.51
2017-03-16T02:38:18.672Z,10.41
2017-03-16T02:38:45.296Z,10.35
2017-03-16T02:39:07.019Z,10.23
2017-03-16T02:39:33.508Z,10.25
2017-03-16T02:39:55.249Z,10.33
2017-03-16T02:40:21.782Z,10.27
2017-03-16T02:40:48.265Z,10.20
2017-03-16T02:41:10.042Z,10.08
2017-03-16T02:41:41.360Z,10.06
2017-03-16T02:42:03.095Z,10.09
2017-03-16T02:42:24.822Z,10.15
2017-03-16T02:42:51.327Z,10.24
2017-03-16T02:43:13.112Z,10.33
2017-03-16T02:43:34.835Z,10.36
2017-03-16T02:43:56.563Z,10.31
2017-03-16T02:44:18.326Z,10.33
2017-03-16T02:44:54.361Z,10.33
2017-03-16T02:45:21.713Z,10.21
2017-03-16T02:45:43.422Z,10.20
2017-03-16T02:46:14.762Z,10.12
2017-03-16T02:46:36.488Z,10.12
2017-03-16T02:47:03.015Z,10.09
2017-03-16T02:47:24.743Z,10.05
2017-03-16T02:47:46.546Z,9.98
2017-03-16T02:48:13.044Z,9.93
2017-03-16T02:48:34.802Z,9.96
2017-03-16T02:49:10.962Z,10.00
2017-03-16T02:49:38.067Z,10.14
2017-03-16T02:49:59.783Z,10.19
2017-03-16T02:50:21.501Z,10.22
2017-03-16T02:50:48.020Z,10.25
2017-03-16T02:51:09.730Z,10.31
2017-03-16T02:51:36.240Z,10.34
2017-03-16T02:51:57.993Z,10.36
2017-03-16T02:52:24.588Z,10.37
2017-03-16T02:52:46.317Z,10.38
2017-03-16T02:53:58.460Z,10.25
2017-03-16T02:54:20.190Z,10.15
2017-03-16T02:54:41.953Z,10.16
2017-03-16T02:55:08.428Z,10.23
2017-03-16T02:55:30.220Z,10.27
2017-03-16T02:56:37.505Z,10.30
2017-03-16T02:56:59.362Z,10.33
2017-03-16T02:57:57.669Z,10.34
2017-03-16T02:58:24.254Z,10.25
2017-03-16T02:59:31.531Z,10.35
2017-03-16T02:59:53.415Z,10.28
2017-03-16T03:01:42.729Z,10.04
2017-03-16T03:02:04.419Z,10.01
2017-03-16T03:02:26.474Z,10.01
2017-03-16T03:02:48.336Z,10.07
2017-03-16T03:03:10.103Z,10.07
2017-03-16T03:03:31.921Z,9.99
2017-03-16T03:03:53.698Z,9.87
2017-03-16T03:04:29.854Z,9.81
2017-03-16T03:04:57.221Z,9.87
2017-03-16T03:05:19.051Z,9.95
2017-03-16T03:05:55.094Z,10.01
2017-03-16T03:06:17.383Z,10.06
2017-03-16T03:06:39.514Z,10.00
2017-03-16T03:07:01.438Z,9.94
2017-03-16T03:07:23.179Z,9.94
2017-03-16T03:07:45.044Z,10.01
2017-03-16T03:08:06.935Z,10.06
2017-03-16T03:08:28.695Z,10.11
2017-03-16T03:08:50.443Z,10.15
2017-03-16T03:09:12.215Z,10.07
2017-03-16T03:09:34.216Z,9.87
2017-03-16T03:09:56.000Z,9.80
2017-03-16T03:10:17.794Z,9.91
2017-03-16T03:10:39.711Z,9.93
2017-03-16T03:11:01.570Z,9.92
2017-03-16T03:11:23.358Z,10.00
2017-03-16T03:11:47.868Z,9.97
2017-03-16T03:12:09.653Z,9.96
2017-03-16T03:12:31.414Z,9.99
2017-03-16T03:12:53.709Z,10.00
2017-03-16T03:13:15.425Z,10.01
2017-03-16T03:13:42.065Z,10.04
2017-03-16T03:14:03.863Z,10.07
2017-03-16T03:14:30.558Z,9.93
2017-03-16T03:14:52.329Z,9.94
2017-03-16T03:15:14.128Z,9.93
2017-03-16T03:15:40.740Z,9.98
2017-03-16T03:16:02.529Z,9.92
2017-03-16T03:17:10.208Z,10.05
2017-03-16T03:17:32.104Z,10.04
2017-03-16T03:18:03.415Z,9.95
2017-03-16T03:18:25.231Z,10.00
2017-03-16T03:19:27.830Z,9.80
2017-03-16T03:19:49.728Z,9.80
2017-03-16T03:20:11.518Z,9.81
2017-03-16T03:20:33.367Z,9.86
2017-03-16T03:20:55.162Z,9.72
2017-03-16T03:21:17.008Z,9.66
2017-03-16T03:21:38.768Z,9.61
2017-03-16T03:22:14.805Z,9.57
2017-03-16T03:22:41.939Z,9.55
2017-03-16T03:23:03.675Z,9.55
2017-03-16T03:23:34.937Z,9.57
2017-03-16T03:23:56.783Z,9.53
2017-03-16T03:24:23.297Z,9.54
2017-03-16T03:24:54.796Z,9.52
2017-03-16T03:25:19.437Z,9.46
2017-03-16T03:25:46.050Z,9.37
2017-03-16T03:26:07.954Z,9.36
2017-03-16T03:26:29.923Z,9.43
2017-03-16T03:26:56.448Z,9.49
2017-03-16T03:27:18.431Z,9.57
2017-03-16T03:27:49.688Z,9.64
2017-03-16T03:28:11.653Z,9.70
2017-03-16T03:28:43.183Z,9.70
2017-03-16T03:29:06.082Z,9.75
2017-03-16T03:30:13.464Z,9.96
2017-03-16T03:30:35.331Z,9.93
2017-03-16T03:31:06.611Z,9.88
2017-03-16T03:31:28.442Z,9.92
2017-03-16T03:31:50.290Z,9.87
2017-03-16T03:32:12.073Z,9.80
2017-03-16T03:32:38.715Z,9.80
2017-03-16T03:33:37.184Z,9.76
2017-03-16T03:33:59.115Z,9.77
2017-03-16T03:34:21.005Z,9.84
2017-03-16T03:34:42.896Z,9.80
2017-03-16T03:35:07.348Z,9.69
2017-03-16T03:35:29.159Z,9.60
2017-03-16T03:35:50.916Z,9.66
2017-03-16T03:36:12.686Z,9.60
2017-03-16T03:36:34.525Z,9.65
2017-03-16T03:36:56.252Z,9.66
2017-03-16T03:37:18.150Z,9.55
2017-03-16T03:37:39.892Z,9.49
2017-03-16T03:38:01.836Z,9.55
2017-03-16T03:38:23.697Z,9.57
2017-03-16T03:38:45.464Z,9.65
2017-03-16T03:39:07.323Z,9.67
2017-03-16T03:39:29.224Z,9.66
2017-03-16T03:39:50.999Z,9.60
2017-03-16T03:40:12.835Z,9.63
2017-03-16T03:41:25.001Z,9.67
2017-03-16T03:41:51.583Z,9.75
2017-03-16T03:42:13.424Z,9.78
2017-03-16T03:42:35.231Z,9.81
2017-03-16T03:42:59.107Z,9.90
2017-03-16T03:43:20.864Z,9.90
2017-03-16T03:43:42.963Z,9.86
2017-03-16T03:44:04.699Z,9.86
2017-03-16T03:44:26.434Z,9.93
2017-03-16T03:44:48.244Z,9.98
2017-03-16T03:45:10.124Z,9.89
2017-03-16T03:45:31.892Z,9.91
2017-03-16T03:45:53.681Z,9.91
2017-03-16T03:46:15.593Z,9.85
2017-03-16T03:46:37.521Z,9.80
2017-03-16T03:46:59.365Z,9.70
2017-03-16T03:47:23.935Z,9.78
2017-03-16T03:47:45.707Z,9.81
2017-03-16T03:48:07.562Z,9.81
2017-03-16T03:48:29.463Z,9.78
2017-03-16T03:48:51.210Z,9.73
2017-03-16T03:49:12.996Z,9.75
2017-03-16T03:49:34.849Z,9.77
2017-03-16T03:49:56.672Z,9.73
2017-03-16T03:50:18.463Z,9.74
2017-03-16T03:50:40.227Z,9.69
2017-03-16T03:51:02.054Z,9.65
2017-03-16T03:51:23.796Z,9.71
2017-03-16T03:51:45.517Z,9.83
2017-03-16T03:52:12.096Z,9.77
2017-03-16T03:52:33.961Z,9.66
2017-03-16T03:52:55.739Z,9.67
2017-03-16T03:53:17.531Z,9.70
2017-03-16T03:53:39.271Z,9.62
2017-03-16T03:54:01.088Z,9.59
2017-03-16T03:54:22.848Z,9.59
2017-03-16T03:54:44.649Z,9.62
2017-03-16T03:55:06.554Z,9.67
2017-03-16T03:55:28.374Z,9.62
2017-03-16T03:55:50.121Z,9.54
2017-03-16T03:56:14.522Z,9.47
2017-03-16T03:56:36.254Z,9.35
2017-03-16T03:56:57.999Z,9.33
2017-03-16T03:57:29.299Z,9.26
2017-03-16T03:57:51.214Z,9.31
2017-03-16T03:58:22.543Z,9.39
2017-03-16T03:58:44.390Z,9.37
2017-03-16T03:59:15.669Z,9.32
2017-03-16T03:59:37.523Z,9.27
2017-03-16T04:00:04.112Z,9.27
2017-03-16T04:00:25.977Z,9.34
2017-03-16T04:00:57.318Z,9.40
2017-03-16T04:01:19.136Z,9.46
2017-03-16T04:01:45.693Z,9.49
2017-03-16T04:02:07.429Z,9.48
2017-03-16T04:02:38.842Z,9.43
2017-03-16T04:03:10.219Z,9.45
2017-03-16T04:03:32.105Z,9.44
2017-03-16T04:04:03.548Z,9.48
2017-03-16T04:04:30.137Z,9.34
2017-03-16T04:04:51.845Z,9.35
2017-03-16T04:05:13.771Z,9.39
2017-03-16T04:05:40.371Z,9.39
2017-03-16T04:06:02.310Z,9.34
2017-03-16T04:06:33.572Z,9.18
2017-03-16T04:06:55.299Z,9.15
2017-03-16T04:07:17.146Z,9.14
2017-03-16T04:07:39.592Z,9.20
2017-03-16T04:08:01.400Z,9.15
2017-03-16T04:08:23.231Z,9.22
2017-03-16T04:08:45.013Z,9.25
2017-03-16T04:09:06.832Z,9.38
2017-03-16T04:09:28.597Z,9.28
2017-03-16T04:09:50.383Z,9.15
2017-03-16T04:10:12.131Z,9.23
2017-03-16T04:10:33.914Z,9.36
2017-03-16T04:10:55.646Z,9.43
2017-03-16T04:11:17.495Z,9.47
2017-03-16T04:11:39.264Z,9.46
2017-03-16T04:12:01.080Z,9.50
2017-03-16T04:12:22.874Z,9.45
2017-03-16T04:12:44.683Z,9.36
2017-03-16T04:13:06.434Z,9.39
2017-03-16T04:13:28.221Z,9.34
2017-03-16T04:13:49.967Z,9.35
2017-03-16T04:14:11.786Z,9.35
2017-03-16T04:14:38.343Z,9.30
2017-03-16T04:15:00.096Z,9.30
2017-03-16T04:15:36.154Z,9.25
2017-03-16T04:16:03.278Z,9.33
2017-03-16T04:16:25.075Z,9.33
2017-03-16T04:17:27.629Z,9.42
2017-03-16T04:17:54.148Z,9.49
2017-03-16T04:18:15.903Z,9.50
2017-03-16T04:18:42.539Z,9.47
2017-03-16T04:19:04.274Z,9.50
2017-03-16T04:19:35.550Z,9.45
2017-03-16T04:19:57.352Z,9.41
2017-03-16T04:20:19.114Z,9.40
2017-03-16T04:20:45.614Z,9.40
2017-03-16T04:21:07.368Z,9.38
2017-03-16T04:21:33.938Z,9.43
2017-03-16T04:21:55.693Z,9.46
2017-03-16T04:22:22.187Z,9.33
2017-03-16T04:22:43.940Z,9.26
2017-03-16T04:23:51.243Z,9.29
2017-03-16T04:24:12.970Z,9.30
2017-03-16T04:24:34.694Z,9.27
2017-03-16T04:24:56.701Z,9.22
2017-03-16T04:25:18.481Z,9.20
2017-03-16T04:25:40.279Z,9.22
2017-03-16T04:26:02.026Z,9.26
2017-03-16T04:26:23.879Z,9.28
2017-03-16T04:26:45.977Z,9.25
2017-03-16T04:27:12.465Z,9.20
2017-03-16T04:27:34.268Z,9.23
2017-03-16T04:28:00.773Z,9.22
2017-03-16T04:28:22.490Z,9.26
2017-03-16T04:28:49.038Z,9.29
2017-03-16T04:29:10.800Z,9.26
2017-03-16T04:29:37.286Z,9.30
2017-03-16T04:29:59.057Z,9.36
2017-03-16T04:31:01.650Z,9.31
2017-03-16T04:31:23.382Z,9.33
2017-03-16T04:31:45.128Z,9.28
2017-03-16T04:32:06.842Z,9.20
2017-03-16T04:32:28.669Z,9.08
2017-03-16T04:32:50.430Z,9.14
2017-03-16T04:33:12.246Z,9.15
2017-03-16T04:33:34.010Z,9.17
2017-03-16T04:33:55.829Z,9.21
2017-03-16T04:34:17.605Z,9.24
2017-03-16T04:34:39.457Z,9.24
2017-03-16T04:35:01.217Z,9.14
2017-03-16T04:35:23.044Z,9.07
2017-03-16T04:35:44.813Z,9.14
2017-03-16T04:36:06.603Z,9.10
2017-03-16T04:36:28.317Z,9.01
2017-03-16T04:36:50.133Z,8.99
2017-03-16T04:37:11.862Z,8.91
2017-03-16T04:37:33.614Z,8.84
2017-03-16T04:37:55.477Z,8.82
2017-03-16T04:38:17.318Z,8.91
2017-03-16T04:38:39.105Z,9.00
2017-03-16T04:39:00.940Z,8.97
2017-03-16T04:39:22.687Z,8.87
2017-03-16T04:39:44.593Z,8.90
2017-03-16T04:40:07.358Z,8.92
2017-03-16T04:40:29.069Z,9.00
2017-03-16T04:40:50.764Z,9.07
2017-03-16T04:41:17.322Z,9.16
2017-03-16T04:41:39.063Z,9.07
2017-03-16T04:42:15.108Z,9.09
2017-03-16T04:42:42.207Z,8.92
2017-03-16T04:43:03.913Z,8.90
2017-03-16T04:43:25.701Z,8.88
2017-03-16T04:43:52.268Z,8.93
2017-03-16T04:44:18.847Z,9.05
2017-03-16T04:44:45.370Z,9.03
2017-03-16T04:45:07.132Z,8.95
2017-03-16T04:45:38.464Z,8.82
2017-03-16T04:46:00.241Z,8.85
2017-03-16T04:46:26.750Z,8.95
2017-03-16T04:46:48.539Z,8.88
2017-03-16T04:47:15.117Z,8.91
2017-03-16T04:47:36.834Z,8.91
2017-03-16T04:48:08.101Z,8.89
2017-03-16T04:48:29.878Z,8.86
2017-03-16T04:49:05.907Z,8.74
2017-03-16T04:49:32.964Z,8.90
2017-03-16T04:49:54.755Z,8.95
2017-03-16T04:50:30.805Z,8.83
2017-03-16T04:50:57.852Z,8.72
2017-03-16T04:51:20.662Z,8.70
2017-03-16T04:51:56.718Z,8.79
2017-03-16T04:52:19.049Z,8.71
2017-03-16T04:53:21.623Z,8.47
2017-03-16T04:53:43.482Z,8.40
2017-03-16T04:54:05.316Z,8.42
2017-03-16T04:54:27.211Z,8.34
2017-03-16T04:54:48.956Z,8.17
2017-03-16T04:55:10.777Z,8.12
2017-03-16T04:55:32.626Z,8.22
2017-03-16T04:55:54.530Z,8.21
2017-03-16T04:56:16.303Z,8.24
2017-03-16T04:56:38.090Z,8.28
2017-03-16T04:56:59.839Z,8.41
2017-03-16T04:57:21.652Z,8.50
2017-03-16T04:58:33.790Z,8.38
2017-03-16T04:58:55.510Z,8.37
2017-03-16T04:59:17.260Z,8.29
2017-03-16T04:59:43.794Z,8.42
2017-03-16T05:00:05.609Z,8.46
2017-03-16T05:00:27.402Z,8.40
2017-03-16T05:00:49.132Z,8.46
2017-03-16T05:01:10.925Z,8.52
2017-03-16T05:01:32.764Z,8.50
2017-03-16T05:02:01.896Z,8.29
2017-03-16T05:02:23.648Z,8.34
2017-03-16T05:02:55.006Z,8.43
2017-03-16T05:03:16.777Z,8.44
2017-03-16T05:04:24.150Z,8.27
2017-03-16T05:04:45.867Z,8.33
2017-03-16T05:05:17.115Z,8.34
2017-03-16T05:05:38.919Z,8.34
2017-03-16T05:06:10.302Z,8.42
2017-03-16T05:06:32.112Z,8.37
2017-03-16T05:06:58.683Z,8.47
2017-03-16T05:07:20.525Z,8.51
2017-03-16T05:07:47.129Z,8.55
2017-03-16T05:08:08.861Z,8.57
2017-03-16T05:08:35.340Z,8.63
2017-03-16T05:08:57.040Z,8.53
2017-03-16T05:09:33.216Z,8.58
2017-03-16T05:10:00.321Z,8.65
2017-03-16T05:10:22.065Z,8.58
2017-03-16T05:11:34.123Z,8.45
2017-03-16T05:11:55.864Z,8.45
2017-03-16T05:12:17.577Z,8.38
2017-03-16T05:12:44.158Z,8.30
2017-03-16T05:13:05.870Z,8.21
2017-03-16T05:13:41.909Z,8.24
2017-03-16T05:14:09.052Z,8.37
2017-03-16T05:14:30.823Z,8.39
2017-03-16T05:14:52.579Z,8.43
2017-03-16T05:15:23.904Z,8.46
2017-03-16T05:15:45.612Z,8.52
2017-03-16T05:16:52.904Z,8.41
2017-03-16T05:17:14.648Z,8.39
2017-03-16T05:18:21.952Z,8.49
2017-03-16T05:18:43.675Z,8.47
2017-03-16T05:19:05.399Z,8.55
2017-03-16T05:19:36.654Z,8.50
2017-03-16T05:19:58.382Z,8.42
2017-03-16T05:20:24.862Z,8.45
2017-03-16T05:20:46.643Z,8.42
2017-03-16T05:21:13.121Z,8.43
2017-03-16T05:21:34.835Z,8.44
2017-03-16T05:22:01.392Z,8.30
2017-03-16T05:22:23.085Z,8.28
2017-03-16T05:22:54.416Z,8.32
2017-03-16T05:23:16.230Z,8.27
2017-03-16T05:23:37.943Z,8.35
2017-03-16T05:24:04.529Z,8.38
2017-03-16T05:24:26.311Z,8.34
2017-03-16T05:24:48.105Z,8.19
2017-03-16T05:25:19.439Z,8.21
2017-03-16T05:25:41.154Z,8.23
2017-03-16T05:26:12.420Z,8.28
2017-03-16T05:26:34.190Z,8.30
2017-03-16T05:26:55.892Z,8.29
2017-03-16T05:27:58.498Z,8.32
2017-03-16T05:28:20.213Z,8.37
2017-03-16T05:28:51.471Z,8.30
2017-03-16T05:29:13.285Z,8.14
2017-03-16T05:29:34.976Z,8.16
2017-03-16T05:30:06.224Z,8.11
2017-03-16T05:30:28.005Z,8.15
2017-03-16T05:31:04.036Z,8.11
2017-03-16T05:31:31.112Z,8.27
2017-03-16T05:31:52.894Z,8.33
2017-03-16T05:32:28.921Z,8.39
2017-03-16T05:32:55.967Z,8.43
2017-03-16T05:33:17.761Z,8.30
2017-03-16T05:33:44.240Z,8.31
2017-03-16T05:34:05.943Z,8.36
2017-03-16T05:34:41.978Z,8.27
2017-03-16T05:35:09.248Z,8.22
2017-03-16T05:35:30.945Z,8.18
2017-03-16T05:35:52.649Z,8.30
2017-03-16T05:36:19.192Z,8.24
2017-03-16T05:36:40.952Z,8.16
2017-03-16T05:37:02.648Z,8.04
2017-03-16T05:37:24.354Z,7.96
2017-03-16T05:37:46.139Z,7.92
2017-03-16T05:38:12.625Z,7.57
2017-03-16T05:38:34.328Z,7.28
2017-03-16T05:39:10.360Z,7.07
2017-03-16T05:39:32.748Z,7.00
2017-03-16T05:39:59.235Z,7.16
2017-03-16T05:41:06.566Z,7.55
2017-03-16T05:41:28.278Z,7.63
2017-03-16T05:41:50.014Z,7.69
2017-03-16T05:42:11.711Z,7.67
2017-03-16T05:42:33.415Z,7.59
2017-03-16T05:42:59.960Z,7.68
2017-03-16T05:43:21.659Z,7.77
2017-03-16T05:43:52.912Z,7.56
2017-03-16T05:44:14.677Z,7.34
2017-03-16T05:44:36.378Z,7.24
2017-03-16T05:45:02.849Z,7.39
2017-03-16T05:45:24.569Z,7.45
2017-03-16T05:45:46.253Z,7.33
2017-03-16T05:46:12.731Z,7.45
2017-03-16T05:46:34.431Z,7.53
2017-03-16T05:47:46.547Z,7.55
2017-03-16T05:48:08.306Z,7.50
2017-03-16T05:48:30.029Z,7.49
2017-03-16T05:49:01.337Z,7.48
2017-03-16T05:49:23.055Z,7.36